Time;durP1;ratioP1;P1;durP2;ratioP2;P2;SDS_P1;SDS_P2;PMS_P1;PMS_P2;Temp;Humidity;BMP_temperature;BMP_pressure;BME280_temperature;BME280_humidity;BME280_pressure;Samples;Min_cycle;Max_cycle;Signal;HPM_P1;HPM_P2
2022/06/03 00:02:11;;;;;;;0.70;0.70;;;25.00;43.50;;;;;;5006158;28;88545;-77
2022/06/03 00:04:49;;;;;;;0.63;0.63;;;25.00;43.60;;;;;;5004784;28;88338;-77
2022/06/03 00:07:29;;;;;;;0.73;0.73;;;25.00;43.60;;;;;;5015272;28;89531;-76
2022/06/03 00:10:32;;;;;;;0.73;0.73;;;25.00;43.70;;;;;;5006801;28;89974;-77
2022/06/03 00:13:02;;;;;;;2.23;0.73;;;25.00;43.70;;;;;;5020727;28;88283;-77
2022/06/03 00:15:42;;;;;;;2.20;1.00;;;25.00;43.70;;;;;;5022535;28;88602;-77
2022/06/03 00:18:32;;;;;;;0.80;0.70;;;25.00;43.80;;;;;;5019820;28;90167;-77
2022/06/03 00:21:02;;;;;;;2.97;0.80;;;25.00;43.80;;;;;;4987899;28;90654;-78
2022/06/03 00:23:56;;;;;;;0.60;0.60;;;24.90;43.70;;;;;;5008892;28;88398;-78
2022/06/03 00:27:15;;;;;;;1.27;1.13;;;24.90;43.70;;;;;;5002026;28;88723;-76
2022/06/03 00:30:05;;;;;;;0.70;0.67;;;24.90;43.80;;;;;;4986072;28;90686;-77
2022/06/03 00:33:15;;;;;;;1.00;0.87;;;24.90;43.80;;;;;;4999081;28;88554;-77
2022/06/03 00:36:01;;;;;;;0.60;0.60;;;24.90;43.80;;;;;;5006862;28;88995;-79
2022/06/03 00:38:42;;;;;;;0.83;0.83;;;24.90;43.80;;;;;;5018817;28;88616;-77
2022/06/03 00:41:46;;;;;;;1.70;0.77;;;24.90;43.90;;;;;;5009226;28;88546;-77
2022/06/03 00:44:42;;;;;;;2.20;0.80;;;24.90;43.90;;;;;;5003515;28;89164;-78
2022/06/03 00:47:20;;;;;;;0.70;0.60;;;24.90;43.90;;;;;;5011219;28;88477;-78
2022/06/03 00:50:01;;;;;;;0.70;0.70;;;24.80;43.80;;;;;;5017700;28;88728;-77
2022/06/03 00:52:54;;;;;;;0.70;0.70;;;24.80;43.90;;;;;;5012898;28;90681;-78
2022/06/03 00:55:37;;;;;;;0.50;0.50;;;24.80;43.90;;;;;;5010485;28;89495;-78
2022/06/03 00:58:27;;;;;;;1.27;0.80;;;24.80;43.90;;;;;;5005635;28;88434;-78
2022/06/03 01:00:59;;;;;;;0.60;0.60;;;24.80;43.90;;;;;;5010857;28;88663;-77
2022/06/03 01:03:35;;;;;;;0.80;0.80;;;24.80;43.90;;;;;;5018583;28;91346;-78
2022/06/03 01:06:20;;;;;;;0.63;0.63;;;24.70;43.80;;;;;;5019977;28;90147;-77
2022/06/03 01:08:57;;;;;;;0.60;0.60;;;24.70;43.80;;;;;;5014773;28;88393;-78
2022/06/03 01:11:42;;;;;;;0.70;0.70;;;24.70;44.50;;;;;;5002985;28;88534;-77
2022/06/03 01:14:16;;;;;;;0.73;0.73;;;24.70;43.80;;;;;;5002094;28;90026;-76
2022/06/03 01:16:57;;;;;;;1.60;1.00;;;24.70;43.80;;;;;;5014968;28;89467;-77
2022/06/03 01:19:55;;;;;;;1.40;0.97;;;24.70;43.80;;;;;;5019024;28;88636;-77
2022/06/03 01:22:45;;;;;;;1.00;0.90;;;24.60;43.70;;;;;;5021429;28;89676;-77
2022/06/03 01:25:35;;;;;;;0.60;0.60;;;24.60;43.80;;;;;;5021958;28;90632;-79
2022/06/03 01:28:26;;;;;;;1.03;0.93;;;24.60;43.70;;;;;;5015496;28;93381;-78
2022/06/03 01:31:07;;;;;;;1.07;1.00;;;24.60;43.70;;;;;;5009915;28;88453;-78
2022/06/03 01:33:47;;;;;;;1.57;0.90;;;24.50;43.60;;;;;;5010007;28;90131;-78
2022/06/03 01:36:35;;;;;;;0.70;0.70;;;24.50;43.60;;;;;;5007595;28;89562;-77
2022/06/03 01:39:11;;;;;;;1.43;0.80;;;24.50;44.30;;;;;;5006229;28;88293;-77
2022/06/03 01:41:59;;;;;;;0.50;0.50;;;24.40;43.50;;;;;;5022346;28;88273;-78
2022/06/03 01:44:56;;;;;;;1.30;0.80;;;24.40;43.50;;;;;;5021456;28;88556;-77
2022/06/03 01:47:58;;;;;;;1.23;0.70;;;24.40;43.50;;;;;;5001105;28;89729;-78
2022/06/03 01:50:37;;;;;;;1.27;0.97;;;24.40;43.50;;;;;;5000329;28;90107;-78
2022/06/03 01:53:24;;;;;;;2.83;0.97;;;24.40;44.10;;;;;;5021118;28;88466;-77
2022/06/03 01:56:30;;;;;;;2.20;0.83;;;24.40;43.50;;;;;;5020079;28;88795;-77
2022/06/03 01:59:14;;;;;;;0.77;0.77;;;24.40;43.50;;;;;;5009001;28;91233;-77
2022/06/03 02:02:12;;;;;;;2.73;0.83;;;24.40;43.50;;;;;;5021231;28;89822;-78
2022/06/03 02:04:54;;;;;;;1.43;1.00;;;24.30;43.50;;;;;;5021576;28;88321;-77
2022/06/03 02:07:36;;;;;;;0.67;0.67;;;24.30;43.40;;;;;;5022261;28;88317;-80
2022/06/03 02:10:38;;;;;;;1.17;1.00;;;24.30;43.40;;;;;;5017790;28;90724;-70
2022/06/03 02:13:33;;;;;;;0.70;0.70;;;24.30;43.40;;;;;;5000972;28;90043;-69
2022/06/03 02:16:58;;;;;;;0.60;0.60;;;24.30;43.40;;;;;;5013452;28;88204;-67
2022/06/03 02:19:53;;;;;;;0.93;0.80;;;24.30;43.40;;;;;;4955387;28;88706;-71
2022/06/03 02:22:57;;;;;;;1.40;0.90;;;24.30;43.40;;;;;;4943076;28;89636;-70
2022/06/03 02:25:51;;;;;;;0.87;0.77;;;24.30;43.50;;;;;;4982873;28;90787;-70
2022/06/03 02:28:40;;;;;;;1.23;1.10;;;24.20;43.30;;;;;;5008686;28;88963;-71
2022/06/03 02:31:31;;;;;;;0.87;0.80;;;24.20;43.30;;;;;;5004297;28;88638;-71
2022/06/03 02:34:21;;;;;;;0.90;0.90;;;24.20;43.30;;;;;;5000776;28;89563;-70
2022/06/03 02:37:10;;;;;;;3.40;0.90;;;24.20;43.30;;;;;;5017305;28;91078;-70
2022/06/03 02:39:57;;;;;;;1.33;0.97;;;24.20;43.30;;;;;;5002098;28;88106;-70
2022/06/03 02:42:37;;;;;;;1.17;0.90;;;24.20;43.30;;;;;;5010547;28;88456;-70
2022/06/03 02:45:51;;;;;;;0.87;0.87;;;24.20;43.30;;;;;;5000875;28;89282;-70
2022/06/03 02:48:30;;;;;;;0.93;0.73;;;24.20;43.30;;;;;;5002602;28;92796;-70
2022/06/03 02:51:27;;;;;;;0.70;0.70;;;24.20;43.30;;;;;;5020182;28;88542;-70
2022/06/03 02:54:16;;;;;;;2.20;1.00;;;24.10;43.20;;;;;;5013040;28;88666;-71
2022/06/03 02:57:03;;;;;;;0.60;0.60;;;24.20;43.20;;;;;;5004350;28;88922;-70
2022/06/03 03:00:03;;;;;;;0.60;0.60;;;24.20;43.20;;;;;;5015941;28;90072;-70
2022/06/03 03:03:00;;;;;;;0.70;0.70;;;24.20;43.20;;;;;;5003756;28;88440;-70
2022/06/03 03:05:36;;;;;;;1.43;0.87;;;24.20;43.20;;;;;;5005985;28;88384;-71
2022/06/03 03:08:41;;;;;;;0.93;0.63;;;24.20;43.10;;;;;;5005246;28;89336;-69
2022/06/03 03:11:28;;;;;;;1.30;1.00;;;24.20;43.20;;;;;;4954010;28;89202;-69
2022/06/03 03:14:19;;;;;;;1.10;1.00;;;24.20;43.20;;;;;;5003183;28;88338;-70
2022/06/03 03:17:00;;;;;;;1.50;1.20;;;24.20;43.20;;;;;;5012506;28;88694;-69
2022/06/03 03:20:08;;;;;;;2.13;1.60;;;24.20;43.10;;;;;;5004400;28;89529;-70
2022/06/03 03:23:05;;;;;;;1.87;1.53;;;24.20;43.10;;;;;;5003057;28;89279;-69
2022/06/03 03:25:42;;;;;;;3.77;2.27;;;24.20;43.10;;;;;;5012453;28;88529;-70
2022/06/03 03:28:35;;;;;;;2.40;1.57;;;24.20;43.10;;;;;;5012928;28;88467;-70
2022/06/03 03:31:23;;;;;;;2.57;1.87;;;24.20;43.10;;;;;;5015932;28;89656;-70
2022/06/03 03:34:11;;;;;;;1.83;1.57;;;24.20;43.10;;;;;;5003674;28;88804;-71
2022/06/03 03:36:52;;;;;;;1.77;1.63;;;24.20;43.00;;;;;;5010461;28;88437;-70
2022/06/03 03:39:52;;;;;;;1.87;1.40;;;24.20;43.00;;;;;;5003942;28;88655;-70
2022/06/03 03:42:52;;;;;;;2.00;1.70;;;24.10;42.90;;;;;;5008381;28;90368;-70
2022/06/03 03:45:49;;;;;;;2.57;1.80;;;24.10;42.90;;;;;;4955744;28;88976;-70
2022/06/03 03:48:47;;;;;;;2.87;2.03;;;24.10;42.90;;;;;;5014853;28;88495;-71
2022/06/03 03:51:33;;;;;;;2.07;1.40;;;24.10;42.90;;;;;;5021925;28;88689;-70
2022/06/03 03:54:48;;;;;;;2.47;1.50;;;24.10;42.90;;;;;;5011182;28;90533;-69
2022/06/03 03:57:37;;;;;;;4.03;1.67;;;24.10;42.90;;;;;;4998888;28;88987;-71
2022/06/03 04:00:08;;;;;;;2.43;1.57;;;24.10;42.90;;;;;;5006784;28;88397;-70
2022/06/03 04:03:13;;;;;;;2.47;1.50;;;24.10;42.80;;;;;;5012812;28;88398;-80
2022/06/03 04:06:02;;;;;;;2.53;1.50;;;24.10;42.90;;;;;;4938885;28;90852;-79
2022/06/03 04:08:47;;;;;;;2.50;1.20;;;24.10;42.80;;;;;;5000259;28;90198;-78
2022/06/03 04:11:35;;;;;;;4.27;1.23;;;24.10;42.80;;;;;;5020901;28;88526;-77
2022/06/03 04:14:25;;;;;;;1.97;1.20;;;24.10;42.80;;;;;;5020835;28;88653;-78
2022/06/03 04:17:22;;;;;;;1.43;1.33;;;24.10;42.70;;;;;;4997705;28;89725;-78
2022/06/03 04:20:17;;;;;;;1.40;1.30;;;24.10;42.70;;;;;;5015341;28;92333;-79
2022/06/03 04:23:10;;;;;;;1.50;1.20;;;24.20;42.80;;;;;;5022941;28;88420;-77
2022/06/03 04:26:06;;;;;;;1.33;1.17;;;24.30;42.70;;;;;;5015045;28;89048;-79
2022/06/03 04:28:54;;;;;;;1.40;1.30;;;24.60;42.40;;;;;;5002499;28;89914;-78
2022/06/03 04:32:04;;;;;;;2.10;1.37;;;24.90;42.10;;;;;;5016933;28;88999;-77
2022/06/03 04:35:12;;;;;;;1.97;1.77;;;25.30;41.80;;;;;;4974339;28;88398;-75
2022/06/03 04:38:24;;;;;;;3.33;1.60;;;25.70;41.60;;;;;;4973882;28;88437;-78
2022/06/03 04:41:37;;;;;;;3.23;1.60;;;26.10;41.40;;;;;;5009417;28;89398;-69
2022/06/03 04:44:50;;;;;;;2.07;1.50;;;26.50;41.10;;;;;;5006651;28;91178;-69
2022/06/03 04:47:56;;;;;;;1.60;1.10;;;26.50;41.20;;;;;;5003078;28;88382;-70
2022/06/03 04:50:52;;;;;;;2.70;1.80;;;26.80;41.10;;;;;;5002289;28;88734;-67
2022/06/03 04:53:58;;;;;;;2.00;1.67;;;27.10;40.80;;;;;;5003792;28;90217;-68
2022/06/03 04:56:58;;;;;;;2.60;1.67;;;26.90;40.90;;;;;;4981766;28;89936;-68
2022/06/03 04:59:53;;;;;;;1.93;1.77;;;26.60;41.20;;;;;;5003904;28;88533;-67
2022/06/03 05:03:05;;;;;;;2.43;1.97;;;26.40;41.60;;;;;;5003383;28;90500;-70
2022/06/03 05:06:21;;;;;;;2.50;1.90;;;26.10;41.70;;;;;;5003622;28;91559;-78
2022/06/03 05:09:29;;;;;;;3.83;2.57;;;26.00;42.00;;;;;;4990389;28;88729;-76
2022/06/03 05:12:51;;;;;;;2.00;1.90;;;25.80;42.10;;;;;;4992867;28;88254;-75
2022/06/03 05:16:05;;;;;;;4.33;2.67;;;25.70;42.10;;;;;;4969981;28;88670;-75
2022/06/03 05:19:22;;;;;;;5.13;3.13;;;25.60;42.10;;;;;;4942633;28;89704;-75
2022/06/03 05:22:14;;;;;;;4.30;3.43;;;25.60;42.30;;;;;;4902381;28;91670;-76
2022/06/03 05:25:11;;;;;;;4.70;3.37;;;25.60;43.00;;;;;;5000301;28;88627;-76
2022/06/03 05:28:08;;;;;;;6.67;3.97;;;25.50;42.40;;;;;;5001448;28;88721;-75
2022/06/03 05:31:04;;;;;;;4.67;3.60;;;25.60;42.50;;;;;;5001734;28;89762;-76
2022/06/03 05:34:17;;;;;;;4.97;3.87;;;25.60;42.50;;;;;;5001806;28;90398;-76
2022/06/03 05:37:08;;;;;;;5.80;3.33;;;25.50;42.50;;;;;;4986702;28;88641;-76
2022/06/03 05:40:01;;;;;;;4.73;3.40;;;25.60;42.60;;;;;;5011730;28;88703;-77
2022/06/03 05:42:52;;;;;;;4.23;3.20;;;25.50;42.60;;;;;;5021472;28;90486;-76
2022/06/03 05:45:53;;;;;;;6.53;3.70;;;25.60;42.70;;;;;;5021411;28;90081;-70
2022/06/03 05:48:24;;;;;;;4.43;3.47;;;25.50;42.70;;;;;;5021646;28;88414;-70
2022/06/03 05:50:53;;;;;;;3.43;3.13;;;25.60;42.70;;;;;;5020991;28;88780;-69
2022/06/03 05:53:38;;;;;;;5.63;3.37;;;25.60;42.70;;;;;;5020814;28;91321;-70
2022/06/03 05:56:21;;;;;;;7.40;3.70;;;25.60;42.80;;;;;;5020049;28;88997;-69
2022/06/03 05:58:52;;;;;;;4.33;2.93;;;25.60;42.80;;;;;;5021331;28;88534;-69
2022/06/03 06:01:44;;;;;;;4.30;3.17;;;25.60;42.70;;;;;;5020635;28;88485;-69
2022/06/03 06:04:17;;;;;;;4.07;2.97;;;25.60;42.80;;;;;;5013463;28;93726;-69
2022/06/03 06:07:04;;;;;;;5.17;3.30;;;25.70;42.90;;;;;;5007582;28;89867;-70
2022/06/03 06:09:53;;;;;;;3.53;2.90;;;25.70;42.80;;;;;;5017447;28;88294;-70
2022/06/03 06:12:36;;;;;;;3.33;2.30;;;25.70;42.80;;;;;;5018252;28;88625;-69
2022/06/03 06:15:24;;;;;;;3.13;2.67;;;25.70;42.80;;;;;;5020807;28;90245;-69
2022/06/03 06:17:57;;;;;;;3.63;2.50;;;25.70;42.80;;;;;;5016027;28;89576;-70
2022/06/03 06:20:45;;;;;;;3.40;3.03;;;25.70;42.90;;;;;;5020502;28;88403;-70
2022/06/03 06:23:17;;;;;;;2.93;2.00;;;25.70;42.90;;;;;;5020954;28;88389;-70
2022/06/03 06:26:05;;;;;;;3.13;2.40;;;25.70;42.90;;;;;;5017082;28;90614;-69
2022/06/03 06:28:42;;;;;;;4.53;2.77;;;25.70;42.90;;;;;;5019818;28;90357;-69
2022/06/03 06:31:21;;;;;;;3.77;2.53;;;25.70;42.80;;;;;;5018349;28;88406;-70
2022/06/03 06:34:12;;;;;;;3.13;2.20;;;25.80;42.90;;;;;;5018276;28;88702;-70
2022/06/03 06:37:08;;;;;;;3.47;2.37;;;25.70;43.50;;;;;;5020802;28;93452;-70
2022/06/03 06:39:51;;;;;;;3.13;2.20;;;25.70;42.90;;;;;;5016947;28;88343;-68
2022/06/03 06:42:27;;;;;;;3.83;2.37;;;25.80;42.90;;;;;;5016926;28;88577;-69
2022/06/03 06:45:04;;;;;;;3.70;2.17;;;25.80;42.90;;;;;;5017779;28;88632;-69
2022/06/03 06:47:36;;;;;;;3.00;2.33;;;25.80;42.80;;;;;;5019463;28;90987;-69
2022/06/03 06:50:12;;;;;;;3.03;1.83;;;25.80;42.80;;;;;;5019739;28;88958;-68
2022/06/03 06:52:51;;;;;;;1.90;1.70;;;25.80;42.80;;;;;;5019571;28;88685;-69
2022/06/03 06:55:22;;;;;;;5.47;2.10;;;25.70;42.80;;;;;;5020086;28;88588;-69
2022/06/03 06:57:54;;;;;;;1.93;1.43;;;25.80;42.80;;;;;;5017560;28;91035;-69
2022/06/03 07:00:24;;;;;;;1.83;1.73;;;25.80;42.80;;;;;;5019697;28;90100;-69
2022/06/03 07:02:54;;;;;;;3.53;1.87;;;25.80;42.70;;;;;;5017322;28;88702;-70
2022/06/03 07:05:26;;;;;;;1.70;1.40;;;25.80;42.70;;;;;;5020069;28;88458;-69
2022/06/03 07:07:58;;;;;;;1.60;1.40;;;25.80;42.70;;;;;;5020464;28;93047;-70
2022/06/03 07:10:27;;;;;;;1.53;1.43;;;25.80;43.30;;;;;;5020830;28;89404;-69
2022/06/03 07:13:01;;;;;;;2.13;1.60;;;25.80;42.60;;;;;;5020170;28;88377;-70
2022/06/03 07:15:35;;;;;;;1.60;1.50;;;25.80;42.60;;;;;;5001835;28;88422;-69
2022/06/03 07:21:09;;;;;;;1.53;1.40;;;25.90;42.80;;;;;;5000687;28;88924;-71
2022/06/03 07:23:41;;;;;;;3.07;1.80;;;25.80;42.90;;;;;;5019127;28;88623;-70
2022/06/03 07:26:12;;;;;;;2.97;1.50;;;25.90;43.10;;;;;;5019493;28;88578;-70
2022/06/03 07:28:45;;;;;;;1.67;1.40;;;25.90;43.10;;;;;;5019871;28;89331;-69
2022/06/03 07:31:17;;;;;;;1.30;1.10;;;25.90;43.30;;;;;;5012737;28;91825;-71
2022/06/03 07:33:55;;;;;;;0.80;0.80;;;25.90;43.30;;;;;;5018270;28;88443;-69
2022/06/03 07:36:28;;;;;;;2.23;1.70;;;25.90;43.40;;;;;;5019438;28;88522;-70
2022/06/03 07:38:57;;;;;;;1.73;1.53;;;25.90;43.40;;;;;;5009271;28;90583;-69
2022/06/03 07:41:30;;;;;;;1.50;1.40;;;25.90;43.40;;;;;;5022482;28;89340;-69
2022/06/03 07:44:02;;;;;;;1.30;0.97;;;25.90;43.50;;;;;;5024489;28;88469;-69
2022/06/03 07:46:31;;;;;;;1.63;1.43;;;25.90;43.50;;;;;;5022824;28;88627;-70
2022/06/03 07:48:59;;;;;;;2.47;1.33;;;26.00;43.60;;;;;;5019972;28;91386;-71
2022/06/03 07:51:31;;;;;;;3.27;1.30;;;25.90;43.50;;;;;;5003814;28;90051;-69
2022/06/03 07:54:04;;;;;;;1.70;1.27;;;26.00;43.70;;;;;;5003289;28;88404;-69
2022/06/03 07:56:33;;;;;;;0.87;0.70;;;26.00;43.70;;;;;;5013746;28;88872;-69
2022/06/03 07:59:05;;;;;;;2.53;0.90;;;26.00;43.70;;;;;;5019958;28;90767;-70
2022/06/03 08:01:35;;;;;;;0.83;0.77;;;26.00;43.70;;;;;;5023647;28;90010;-69
2022/06/03 08:04:05;;;;;;;0.90;0.90;;;26.00;43.80;;;;;;5023433;28;88323;-69
2022/06/03 08:10:56;;;;;;;1.83;1.10;;;26.00;43.80;;;;;;5023051;28;88408;-70
2022/06/03 08:12:27;;;;;;;0.80;0.80;;;26.00;43.80;;;;;;5023390;28;92744;-69
2022/06/03 08:14:56;;;;;;;1.00;0.90;;;26.00;43.80;;;;;;5022694;28;88500;-70
2022/06/03 08:17:25;;;;;;;1.60;0.67;;;26.00;43.80;;;;;;5020014;28;89807;-69
2022/06/03 08:19:54;;;;;;;1.30;0.77;;;26.00;43.70;;;;;;5002902;28;89620;-69
2022/06/03 08:22:24;;;;;;;0.63;0.63;;;26.00;43.70;;;;;;5004084;28;92402;-69
2022/06/03 08:24:53;;;;;;;2.40;0.97;;;26.10;43.70;;;;;;5022857;28;88651;-70
2022/06/03 08:27:24;;;;;;;3.60;0.87;;;26.10;43.70;;;;;;5018640;28;88545;-69
2022/06/03 08:29:59;;;;;;;0.70;0.70;;;26.10;43.60;;;;;;5022070;28;88493;-69
2022/06/03 08:32:30;;;;;;;0.97;0.60;;;26.10;43.60;;;;;;5022954;28;92268;-70
2022/06/03 08:34:59;;;;;;;0.97;0.80;;;26.20;43.60;;;;;;5023504;28;88466;-70
2022/06/03 08:37:29;;;;;;;0.70;0.70;;;26.00;43.40;;;;;;5017981;28;88376;-70
2022/06/03 08:39:58;;;;;;;0.60;0.60;;;26.00;43.40;;;;;;5002196;28;90726;-70
2022/06/03 08:42:31;;;;;;;0.57;0.57;;;26.00;43.40;;;;;;5018621;28;88975;-69
2022/06/03 08:45:25;;;;;;;1.20;1.07;;;26.00;43.40;;;;;;5023059;28;88498;-70
2022/06/03 08:47:54;;;;;;;1.13;0.53;;;26.00;43.40;;;;;;5022476;28;88608;-69
2022/06/03 08:50:29;;;;;;;0.80;0.70;;;26.00;43.30;;;;;;5021673;28;91974;-71
2022/06/03 08:53:00;;;;;;;0.60;0.60;;;26.00;43.30;;;;;;5022426;28;92085;-71
2022/06/03 08:55:46;;;;;;;0.70;0.70;;;26.00;43.30;;;;;;5021637;28;88514;-70
2022/06/03 08:58:30;;;;;;;1.00;0.70;;;26.00;43.30;;;;;;5021960;28;89534;-70
2022/06/03 09:01:11;;;;;;;0.87;0.87;;;26.00;43.30;;;;;;5019979;28;89564;-69
2022/06/03 09:03:46;;;;;;;0.83;0.83;;;26.00;43.30;;;;;;5018429;28;89246;-70
2022/06/03 09:06:30;;;;;;;0.60;0.50;;;26.00;43.30;;;;;;5022140;28;89042;-70
2022/06/03 09:09:00;;;;;;;1.97;0.70;;;26.00;43.30;;;;;;5021538;28;88616;-69
2022/06/03 09:11:31;;;;;;;2.37;0.57;;;26.00;43.20;;;;;;5021364;28;89828;-70
2022/06/03 09:14:00;;;;;;;1.27;0.80;;;26.00;43.30;;;;;;5020293;28;88962;-70
2022/06/03 09:16:29;;;;;;;0.50;0.50;;;26.00;43.20;;;;;;5021577;28;88342;-69
2022/06/03 09:19:00;;;;;;;1.50;0.80;;;26.00;43.20;;;;;;5022963;28;88486;-69
2022/06/03 09:21:31;;;;;;;1.50;0.97;;;26.00;43.20;;;;;;5011393;28;92477;-69
2022/06/03 09:24:01;;;;;;;1.53;0.60;;;26.10;43.20;;;;;;5011610;28;89421;-70
2022/06/03 09:26:31;;;;;;;0.70;0.70;;;26.00;43.10;;;;;;5023010;28;88261;-69
2022/06/03 09:28:59;;;;;;;0.60;0.60;;;26.10;43.10;;;;;;5021088;28;88700;-69
2022/06/03 09:31:29;;;;;;;1.10;0.80;;;26.10;43.00;;;;;;5021182;28;90278;-69
2022/06/03 09:33:57;;;;;;;0.90;0.60;;;26.10;43.00;;;;;;5019992;28;91905;-70
2022/06/03 09:36:25;;;;;;;0.50;0.50;;;26.10;43.00;;;;;;5019476;28;88566;-70
2022/06/03 09:38:57;;;;;;;1.43;0.93;;;26.10;43.00;;;;;;5021590;28;88688;-69
2022/06/03 09:41:27;;;;;;;1.90;0.70;;;26.20;43.00;;;;;;5021843;28;90722;-70
2022/06/03 09:43:56;;;;;;;0.60;0.60;;;26.20;43.60;;;;;;5020138;28;90000;-69
2022/06/03 09:46:25;;;;;;;1.63;0.90;;;26.10;42.90;;;;;;5023706;28;88361;-70
2022/06/03 09:48:55;;;;;;;1.43;0.80;;;26.20;43.00;;;;;;5018932;28;88644;-71
2022/06/03 09:51:55;;;;;;;1.80;0.70;;;26.20;43.00;;;;;;5022118;28;89322;-70
2022/06/03 09:54:14;;;;;;;0.63;0.63;;;26.20;43.00;;;;;;5020872;28;91982;-70
2022/06/03 09:56:46;;;;;;;0.50;0.50;;;26.20;43.00;;;;;;5021521;28;88404;-70
2022/06/03 09:59:14;;;;;;;0.77;0.43;;;26.20;43.00;;;;;;5020575;28;88341;-70
2022/06/03 10:01:43;;;;;;;0.50;0.50;;;26.20;42.90;;;;;;5021532;28;90031;-70
2022/06/03 10:04:12;;;;;;;0.60;0.60;;;26.20;42.90;;;;;;5019137;28;92012;-70
2022/06/03 10:06:50;;;;;;;0.80;0.80;;;26.30;43.00;;;;;;5020915;28;88404;-70
2022/06/03 10:17:40;;;;;;;0.60;0.60;;;26.30;43.00;;;;;;5021329;28;88318;-70
2022/06/03 10:20:10;;;;;;;0.80;0.80;;;26.30;43.00;;;;;;5011806;28;89178;-70
2022/06/03 10:22:38;;;;;;;0.77;0.77;;;26.30;43.00;;;;;;5000427;28;89597;-69
2022/06/03 10:25:07;;;;;;;0.77;0.77;;;26.30;43.00;;;;;;5000127;28;89375;-69
2022/06/03 10:27:36;;;;;;;1.30;0.90;;;26.40;43.00;;;;;;5013301;28;88558;-69
2022/06/03 10:30:06;;;;;;;1.33;0.97;;;26.40;42.90;;;;;;5020816;28;88965;-69
2022/06/03 10:32:34;;;;;;;1.07;0.60;;;26.40;42.90;;;;;;5020742;28;89570;-70
2022/06/03 10:35:11;;;;;;;0.70;0.70;;;26.40;42.90;;;;;;5018517;28;91869;-70
2022/06/03 10:37:49;;;;;;;0.90;0.83;;;26.40;42.90;;;;;;5020596;28;88314;-69
2022/06/03 10:40:18;;;;;;;0.77;0.70;;;26.50;42.90;;;;;;5021109;28;88329;-70
2022/06/03 10:42:46;;;;;;;0.80;0.80;;;26.50;42.90;;;;;;5018135;28;89907;-70
2022/06/03 10:45:14;;;;;;;1.30;0.83;;;26.60;42.90;;;;;;5015546;28;92647;-70
2022/06/03 10:47:44;;;;;;;1.70;0.93;;;26.60;42.90;;;;;;5017825;28;88423;-70
2022/06/03 10:50:15;;;;;;;1.97;0.90;;;26.60;42.90;;;;;;5020361;28;88565;-70
2022/06/03 11:01:14;;;;;;;0.40;0.40;;;26.60;42.80;;;;;;5019505;28;88425;-69
2022/06/03 11:03:43;;;;;;;0.70;0.70;;;26.60;42.90;;;;;;5020042;28;90432;-70
2022/06/03 11:06:15;;;;;;;0.60;0.60;;;26.60;42.80;;;;;;5020632;28;88924;-70
2022/06/03 11:08:47;;;;;;;1.03;0.70;;;26.60;42.80;;;;;;5019655;28;88678;-70
2022/06/03 11:11:33;;;;;;;0.60;0.60;;;26.60;42.80;;;;;;5021037;28;88356;-70
2022/06/03 11:14:23;;;;;;;1.10;0.70;;;26.60;42.80;;;;;;5019503;28;89659;-70
2022/06/03 11:16:52;;;;;;;0.77;0.70;;;26.60;42.80;;;;;;5003636;28;89920;-71
2022/06/03 11:19:20;;;;;;;0.70;0.70;;;26.70;42.80;;;;;;5008381;28;88735;-70
2022/06/03 11:21:48;;;;;;;0.47;0.40;;;26.70;43.00;;;;;;5003425;28;88659;-70
2022/06/03 11:24:17;;;;;;;0.63;0.63;;;26.70;43.00;;;;;;5004580;28;89142;-70
2022/06/03 11:26:46;;;;;;;0.70;0.70;;;26.80;43.10;;;;;;5004063;28;88950;-70
2022/06/03 11:29:17;;;;;;;0.50;0.50;;;26.80;43.20;;;;;;5003944;28;88478;-70
2022/06/03 11:31:47;;;;;;;2.30;0.70;;;26.80;43.20;;;;;;5003414;28;88540;-70
2022/06/03 11:34:17;;;;;;;0.70;0.70;;;26.80;43.20;;;;;;5003820;28;89765;-71
2022/06/03 11:36:46;;;;;;;0.77;0.70;;;26.80;43.20;;;;;;5004005;28;89293;-70
2022/06/03 11:39:19;;;;;;;0.60;0.60;;;26.90;43.20;;;;;;5003805;28;88707;-71
2022/06/03 11:41:50;;;;;;;0.70;0.70;;;26.90;43.20;;;;;;5004143;28;88692;-71
2022/06/03 11:44:20;;;;;;;3.37;0.70;;;26.90;43.10;;;;;;5021798;28;90222;-72
2022/06/03 11:46:50;;;;;;;2.00;0.67;;;26.90;43.20;;;;;;5023038;28;88512;-72
2022/06/03 11:49:20;;;;;;;0.80;0.67;;;26.90;43.10;;;;;;5023128;28;88936;-72
2022/06/03 11:51:49;;;;;;;0.60;0.60;;;26.90;43.10;;;;;;5023775;28;88556;-72
2022/06/03 11:54:18;;;;;;;0.80;0.80;;;26.90;43.10;;;;;;5023367;28;90208;-73
2022/06/03 11:56:48;;;;;;;0.60;0.60;;;26.90;43.10;;;;;;5002783;28;89014;-73
2022/06/03 11:59:20;;;;;;;0.60;0.60;;;26.90;43.10;;;;;;5004552;28;88635;-73
2022/06/03 12:01:53;;;;;;;2.07;0.67;;;26.90;43.10;;;;;;5023063;28;88721;-72
2022/06/03 12:04:27;;;;;;;0.97;0.50;;;26.90;43.10;;;;;;5023004;28;90441;-72
2022/06/03 12:06:59;;;;;;;0.80;0.70;;;27.00;43.20;;;;;;5022629;28;88891;-72
2022/06/03 12:09:36;;;;;;;0.63;0.60;;;27.00;43.10;;;;;;5022400;28;88336;-72
2022/06/03 12:14:58;;;;;;;0.90;0.50;;;27.00;43.10;;;;;;5003448;28;92790;-72
2022/06/03 12:17:32;;;;;;;0.77;0.70;;;27.00;43.10;;;;;;5003306;28;91576;-72
2022/06/03 12:20:05;;;;;;;2.70;0.60;;;27.00;43.10;;;;;;5002937;28;88375;-72
2022/06/03 12:22:41;;;;;;;0.60;0.60;;;27.10;43.10;;;;;;5003439;28;88491;-72
2022/06/03 12:25:43;;;;;;;0.50;0.50;;;27.10;43.00;;;;;;5010330;28;89265;-72
2022/06/03 12:28:21;;;;;;;2.60;0.90;;;27.10;43.10;;;;;;5021588;28;88970;-72
2022/06/03 12:30:51;;;;;;;0.87;0.60;;;27.10;43.00;;;;;;5022829;28;88338;-72
2022/06/03 12:33:25;;;;;;;0.60;0.60;;;27.10;42.90;;;;;;5020338;28;88685;-72
2022/06/03 12:36:04;;;;;;;0.60;0.60;;;27.00;42.80;;;;;;5020821;28;90031;-72
2022/06/03 12:38:56;;;;;;;1.10;0.90;;;27.10;42.80;;;;;;5022578;28;88272;-72
2022/06/03 12:42:02;;;;;;;1.53;0.80;;;27.10;42.60;;;;;;5023441;28;88326;-72
2022/06/03 12:44:44;;;;;;;0.70;0.70;;;27.10;42.50;;;;;;5022021;28;88637;-72
2022/06/03 12:47:27;;;;;;;1.97;0.90;;;27.10;42.40;;;;;;5023172;28;90006;-72
2022/06/03 12:49:55;;;;;;;1.07;0.63;;;27.10;42.40;;;;;;5022753;28;92460;-72
2022/06/03 12:52:37;;;;;;;0.70;0.70;;;27.10;42.20;;;;;;5023763;28;88329;-72
2022/06/03 12:55:07;;;;;;;0.50;0.50;;;27.10;42.20;;;;;;5021071;28;88703;-73
2022/06/03 12:57:39;;;;;;;0.57;0.50;;;27.10;42.00;;;;;;5022922;28;90588;-81
2022/06/03 13:00:12;;;;;;;0.80;0.80;;;27.10;41.90;;;;;;5020112;28;92520;-78
2022/06/03 13:02:49;;;;;;;0.60;0.60;;;27.20;41.90;;;;;;5022761;28;88514;-78
2022/06/03 13:05:29;;;;;;;0.70;0.70;;;27.10;41.70;;;;;;5022114;28;88471;-78
2022/06/03 13:07:59;;;;;;;0.67;0.67;;;27.20;41.60;;;;;;5020944;28;89557;-77
2022/06/03 13:10:30;;;;;;;1.37;0.97;;;27.20;41.60;;;;;;5018432;28;90978;-78
2022/06/03 13:13:36;;;;;;;0.93;0.60;;;27.20;41.40;;;;;;5021435;28;88470;-78
2022/06/03 13:16:45;;;;;;;0.73;0.73;;;27.20;41.40;;;;;;5013446;28;88761;-78
2022/06/03 13:19:41;;;;;;;0.60;0.60;;;27.20;41.30;;;;;;5021332;28;89475;-77
2022/06/03 13:22:09;;;;;;;1.07;0.97;;;27.20;41.30;;;;;;5021283;28;88586;-77
2022/06/03 13:24:38;;;;;;;0.60;0.60;;;27.20;41.10;;;;;;5021590;28;88326;-77
2022/06/03 13:27:11;;;;;;;0.53;0.53;;;27.20;41.00;;;;;;5017449;28;88613;-77
2022/06/03 13:30:05;;;;;;;0.57;0.57;;;27.30;41.10;;;;;;5019744;28;89695;-77
2022/06/03 13:32:59;;;;;;;0.70;0.70;;;27.30;41.00;;;;;;5012857;28;92628;-76
2022/06/03 13:35:29;;;;;;;0.70;0.70;;;27.30;41.00;;;;;;5017147;28;88653;-77
2022/06/03 13:38:16;;;;;;;0.80;0.77;;;27.30;40.90;;;;;;5021099;28;88597;-77
2022/06/03 13:42:57;;;;;;;3.50;1.27;;;27.40;41.60;;;;;;5002522;28;90645;-75
2022/06/03 13:43:32;;;;;;;1.63;0.80;;;27.40;40.80;;;;;;5020451;28;90135;-76
2022/06/03 13:46:08;;;;;;;1.43;1.00;;;27.50;41.00;;;;;;5016777;28;88622;-75
2022/06/03 13:48:59;;;;;;;2.37;0.90;;;27.50;41.20;;;;;;5016935;28;89240;-75
2022/06/03 13:51:49;;;;;;;2.67;1.00;;;27.50;41.40;;;;;;5016363;28;89969;-76
2022/06/03 13:54:21;;;;;;;0.80;0.80;;;27.60;41.50;;;;;;5018889;28;88580;-76
2022/06/03 13:56:59;;;;;;;1.90;0.70;;;27.60;41.60;;;;;;5010511;28;88477;-77
2022/06/03 13:59:29;;;;;;;3.97;0.77;;;27.60;41.70;;;;;;5001846;28;88473;-76
2022/06/03 14:01:57;;;;;;;2.33;0.97;;;27.60;41.70;;;;;;5001166;28;89962;-75
2022/06/03 14:04:32;;;;;;;2.53;0.70;;;27.70;41.90;;;;;;5002179;28;92906;-76
2022/06/03 14:07:01;;;;;;;1.03;0.80;;;27.70;42.00;;;;;;5013786;28;88370;-75
2022/06/03 14:09:32;;;;;;;1.03;0.90;;;27.80;42.00;;;;;;5006049;28;88417;-75
2022/06/03 14:12:22;;;;;;;1.47;0.70;;;27.80;42.10;;;;;;5005169;28;89416;-76
2022/06/03 14:14:57;;;;;;;2.10;0.70;;;27.80;42.20;;;;;;5014192;28;89376;-75
2022/06/03 14:17:31;;;;;;;1.33;0.80;;;27.80;42.20;;;;;;5020652;28;89699;-75
2022/06/03 14:20:05;;;;;;;0.67;0.60;;;27.80;42.30;;;;;;5013089;28;89306;-76
2022/06/03 14:22:36;;;;;;;1.57;0.80;;;27.80;42.40;;;;;;5019928;28;93863;-76
2022/06/03 14:25:23;;;;;;;1.53;0.83;;;27.90;42.50;;;;;;5020156;28;89452;-75
2022/06/03 14:27:59;;;;;;;0.60;0.60;;;27.90;42.50;;;;;;5020049;28;88529;-73
2022/06/03 14:30:32;;;;;;;3.60;0.90;;;27.90;42.60;;;;;;5004442;28;88384;-73